createdAt,value
2019-04-29T00:00:36.500Z,1.13
2019-04-29T00:03:02.829Z,1.30
2019-04-29T00:07:55.588Z,1.17
2019-04-29T00:10:21.985Z,1.20
2019-04-29T00:12:48.321Z,1.00
2019-04-29T00:15:14.650Z,1.20
2019-04-29T00:17:40.978Z,1.20
2019-04-29T00:20:07.423Z,0.90
2019-04-29T00:22:33.704Z,1.00
2019-04-29T00:25:00.101Z,1.00
2019-04-29T00:27:26.383Z,1.20
2019-04-29T00:29:52.764Z,1.00
2019-04-29T00:32:19.143Z,1.00
2019-04-29T00:34:45.461Z,1.00
2019-04-29T00:37:11.842Z,1.00
2019-04-29T00:39:38.178Z,1.00
2019-04-29T00:42:07.322Z,1.20
2019-04-29T00:44:33.693Z,1.00
2019-04-29T00:47:00.076Z,0.90
2019-04-29T00:49:26.414Z,0.90
2019-04-29T00:51:52.759Z,1.00
2019-04-29T00:54:19.153Z,0.80
2019-04-29T00:56:45.534Z,0.90
2019-04-29T00:59:11.891Z,0.93
2019-04-29T01:01:38.287Z,0.80
2019-04-29T01:04:04.606Z,1.00
2019-04-29T01:06:30.956Z,0.97
2019-04-29T01:08:57.283Z,0.90
2019-04-29T01:11:23.642Z,0.87
2019-04-29T01:16:16.319Z,0.80
2019-04-29T01:18:42.653Z,0.80
2019-04-29T01:21:09.067Z,0.90
2019-04-29T01:23:35.425Z,0.90
2019-04-29T01:26:01.696Z,0.90
2019-04-29T01:28:28.051Z,0.90
2019-04-29T01:30:54.385Z,1.00
2019-04-29T01:33:20.738Z,0.80
2019-04-29T01:35:47.106Z,0.83
2019-04-29T01:38:13.543Z,0.80
2019-04-29T01:40:39.963Z,0.80
2019-04-29T01:43:06.297Z,0.80
2019-04-29T01:45:32.709Z,1.17
2019-04-29T01:50:25.405Z,0.80
2019-04-29T01:52:51.746Z,0.90
2019-04-29T01:55:18.070Z,0.90
2019-04-29T01:57:44.448Z,0.80
2019-04-29T02:00:12.413Z,0.90
2019-04-29T02:02:37.206Z,0.87
2019-04-29T02:05:03.540Z,0.80
2019-04-29T02:07:29.849Z,0.80
2019-04-29T02:09:56.188Z,0.80
2019-04-29T02:12:22.542Z,0.80
2019-04-29T02:14:48.877Z,0.80
2019-04-29T02:17:15.243Z,0.80
2019-04-29T02:19:41.640Z,0.87
2019-04-29T02:24:34.302Z,0.70
2019-04-29T02:27:00.655Z,0.80
2019-04-29T02:29:26.987Z,0.70
2019-04-29T02:31:53.379Z,0.80
2019-04-29T02:34:19.684Z,1.00
2019-04-29T02:36:46.088Z,0.90
2019-04-29T02:39:12.491Z,0.70
2019-04-29T02:41:38.866Z,0.90
2019-04-29T02:44:05.201Z,0.80
2019-04-29T02:46:31.594Z,0.80
2019-04-29T02:48:57.910Z,0.80
2019-04-29T02:51:24.276Z,0.83
2019-04-29T02:53:50.609Z,0.80
2019-04-29T02:58:43.322Z,0.80
2019-04-29T03:01:09.757Z,0.80
2019-04-29T03:03:36.116Z,0.80
2019-04-29T03:06:02.516Z,0.93
2019-04-29T03:08:28.805Z,0.80
2019-04-29T03:10:55.138Z,0.80
2019-04-29T03:13:21.504Z,0.87
2019-04-29T03:15:48.151Z,0.80
2019-04-29T03:18:14.498Z,0.90
2019-04-29T03:20:40.931Z,0.80
2019-04-29T03:23:07.207Z,0.80
2019-04-29T03:25:33.563Z,0.80
2019-04-29T03:28:00.041Z,0.83
2019-04-29T03:30:26.460Z,0.90
2019-04-29T03:32:52.764Z,0.80
2019-04-29T03:35:19.162Z,0.73
2019-04-29T03:37:45.549Z,0.80
2019-04-29T03:40:11.898Z,0.80
2019-04-29T03:42:38.431Z,0.90
2019-04-29T03:45:04.772Z,0.90
2019-04-29T03:47:31.158Z,0.80
2019-04-29T03:49:57.517Z,0.80
2019-04-29T03:52:23.888Z,0.80
2019-04-29T03:54:50.282Z,0.80
2019-04-29T03:57:16.651Z,1.00
2019-04-29T03:59:42.997Z,0.90
2019-04-29T04:02:09.339Z,0.80
2019-04-29T04:04:35.701Z,0.90
2019-04-29T04:07:04.203Z,0.80
2019-04-29T04:09:28.462Z,0.80
2019-04-29T04:11:54.874Z,0.80
2019-04-29T04:14:21.203Z,0.90
2019-04-29T04:16:47.544Z,0.90
2019-04-29T04:19:13.939Z,0.87
2019-04-29T04:21:40.316Z,0.90
2019-04-29T04:24:06.609Z,0.80
2019-04-29T04:26:32.940Z,0.90
2019-04-29T04:28:59.339Z,0.80
2019-04-29T04:31:25.737Z,0.80
2019-04-29T04:33:52.112Z,0.80
2019-04-29T04:36:18.504Z,0.80
2019-04-29T04:38:44.852Z,0.83
2019-04-29T04:41:11.280Z,0.93
2019-04-29T04:43:37.591Z,0.80
2019-04-29T04:46:03.917Z,0.80
2019-04-29T04:48:30.249Z,0.90
2019-04-29T04:50:56.619Z,0.80
2019-04-29T04:53:22.959Z,0.83
2019-04-29T04:55:49.369Z,0.90
2019-04-29T04:58:15.716Z,0.80
2019-04-29T05:00:42.090Z,0.80
2019-04-29T05:03:08.416Z,0.80
2019-04-29T05:05:34.799Z,0.80
2019-04-29T05:08:01.152Z,0.80
2019-04-29T05:10:27.546Z,0.80
2019-04-29T05:12:53.886Z,0.80
2019-04-29T05:15:20.234Z,0.90
2019-04-29T05:17:46.591Z,0.90
2019-04-29T05:20:12.877Z,0.80
2019-04-29T05:22:39.219Z,0.80
2019-04-29T05:25:05.629Z,0.87
2019-04-29T05:27:31.920Z,0.80
2019-04-29T05:29:58.279Z,0.80
2019-04-29T05:32:24.623Z,0.80
2019-04-29T05:37:17.381Z,0.80
2019-04-29T05:39:43.739Z,0.80
2019-04-29T05:42:16.296Z,0.97
2019-04-29T05:44:36.559Z,0.80
2019-04-29T05:47:02.925Z,0.90
2019-04-29T05:49:29.321Z,0.80
2019-04-29T05:51:57.510Z,0.80
2019-04-29T05:54:22.044Z,0.80
2019-04-29T05:59:14.744Z,0.90
2019-04-29T06:01:42.690Z,1.00
2019-04-29T06:04:07.446Z,0.83
2019-04-29T06:06:33.844Z,0.80
2019-04-29T06:09:00.236Z,0.90
2019-04-29T06:11:26.565Z,0.90
2019-04-29T06:13:52.958Z,0.80
2019-04-29T06:16:20.905Z,0.80
2019-04-29T06:21:12.035Z,1.03
2019-04-29T06:23:38.337Z,0.90
2019-04-29T06:26:04.724Z,0.80
2019-04-29T06:28:31.056Z,1.00
2019-04-29T06:30:57.436Z,0.80
2019-04-29T06:33:24.229Z,0.93
2019-04-29T06:35:50.160Z,0.90
2019-04-29T06:38:16.601Z,0.90
2019-04-29T06:40:42.932Z,0.87
2019-04-29T06:43:09.299Z,0.90
2019-04-29T06:45:35.640Z,0.90
2019-04-29T06:48:02.075Z,0.70
2019-04-29T06:50:28.406Z,0.80
2019-04-29T06:52:54.755Z,0.90
2019-04-29T06:55:21.146Z,0.90
2019-04-29T06:57:47.438Z,0.80
2019-04-29T07:00:17.680Z,0.90
2019-04-29T07:02:40.179Z,0.80
2019-04-29T07:05:06.519Z,0.90
2019-04-29T07:07:32.899Z,0.80
2019-04-29T07:09:59.273Z,0.90
2019-04-29T07:12:25.584Z,0.80
2019-04-29T07:25:04.091Z,0.93
2019-04-29T07:27:30.509Z,0.90
2019-04-29T07:29:56.815Z,0.90
2019-04-29T07:32:23.156Z,0.90
2019-04-29T07:34:49.683Z,0.90
2019-04-29T07:37:16.776Z,0.80
2019-04-29T07:39:42.385Z,0.80
2019-04-29T07:42:08.812Z,0.90
2019-04-29T07:44:43.751Z,0.80
2019-04-29T07:47:02.495Z,0.80
2019-04-29T07:49:27.866Z,0.90
2019-04-29T07:51:54.213Z,0.90
2019-04-29T07:54:20.544Z,0.87
2019-04-29T07:56:46.971Z,0.90
2019-04-29T07:59:13.321Z,0.83
2019-04-29T08:01:39.713Z,0.83
2019-04-29T08:04:06.049Z,0.93
2019-04-29T08:06:32.428Z,0.80
2019-04-29T08:09:07.320Z,0.80
2019-04-29T08:11:25.164Z,0.90
2019-04-29T08:13:51.514Z,0.90
2019-04-29T08:16:18.642Z,0.80
2019-04-29T08:18:44.229Z,0.90
2019-04-29T08:21:14.444Z,0.93
2019-04-29T08:23:41.116Z,0.90
2019-04-29T08:26:04.542Z,0.90
2019-04-29T08:28:29.710Z,1.00
2019-04-29T08:30:56.140Z,0.90
2019-04-29T08:33:22.438Z,0.80
2019-04-29T08:35:48.787Z,0.97
2019-04-29T08:38:15.132Z,0.80
2019-04-29T08:40:45.093Z,0.90
2019-04-29T08:43:07.913Z,0.70
2019-04-29T08:45:34.733Z,0.80
2019-04-29T08:48:00.683Z,0.80
2019-04-29T08:50:27.063Z,0.80
2019-04-29T08:52:53.393Z,0.80
2019-04-29T08:55:19.827Z,0.80
2019-04-29T08:57:46.106Z,0.80
2019-04-29T09:00:12.476Z,0.80
2019-04-29T09:02:41.268Z,0.80
2019-04-29T09:05:06.898Z,0.90
2019-04-29T09:07:31.493Z,0.80
2019-04-29T09:10:02.039Z,0.90
2019-04-29T09:12:28.993Z,0.80
2019-04-29T09:14:50.542Z,0.83
2019-04-29T09:17:20.633Z,0.80
2019-04-29T09:19:43.263Z,0.80
2019-04-29T09:22:09.595Z,0.80
2019-04-29T09:24:35.933Z,0.80
2019-04-29T09:27:04.912Z,0.80
2019-04-29T09:29:28.665Z,0.90
2019-04-29T09:31:55.087Z,0.80
2019-04-29T09:34:24.645Z,0.90
2019-04-29T09:36:48.420Z,0.80
2019-04-29T09:39:14.187Z,0.80
2019-04-29T09:41:40.523Z,1.10
2019-04-29T09:44:06.848Z,0.80
2019-04-29T09:46:34.476Z,0.70
2019-04-29T09:48:59.555Z,0.93
2019-04-29T09:51:27.723Z,0.90
2019-04-29T09:53:52.231Z,0.80
2019-04-29T09:56:18.590Z,0.80
2019-04-29T09:58:44.932Z,0.80
2019-04-29T10:01:13.786Z,0.90
2019-04-29T10:03:37.695Z,0.90
2019-04-29T10:06:04.064Z,0.90
2019-04-29T10:10:56.707Z,0.80
2019-04-29T10:23:44.118Z,0.80
2019-04-29T10:26:10.475Z,0.80
2019-04-29T10:28:36.913Z,0.90
2019-04-29T10:31:03.275Z,0.80
2019-04-29T10:33:29.619Z,0.80
2019-04-29T10:35:55.980Z,0.80
2019-04-29T10:38:22.306Z,0.80
2019-04-29T10:40:48.700Z,0.80
2019-04-29T10:43:15.580Z,0.90
2019-04-29T10:45:41.351Z,0.80
2019-04-29T10:48:07.679Z,0.90
2019-04-29T10:50:34.021Z,0.70
2019-04-29T10:53:00.418Z,0.80
2019-04-29T10:55:30.089Z,0.90
2019-04-29T10:57:53.089Z,0.80
2019-04-29T11:00:21.756Z,0.77
2019-04-29T11:02:49.341Z,0.80
2019-04-29T11:05:13.260Z,0.87
2019-04-29T11:07:38.451Z,0.90
2019-04-29T11:10:07.815Z,0.80
2019-04-29T11:12:31.192Z,0.80
2019-04-29T11:14:57.573Z,0.90
2019-04-29T11:17:23.899Z,0.90
2019-04-29T11:19:50.230Z,0.80
2019-04-29T11:22:16.598Z,0.90
2019-04-29T11:24:42.934Z,0.80
2019-04-29T11:27:12.132Z,0.80
2019-04-29T11:29:35.841Z,0.90
2019-04-29T11:32:01.957Z,0.90
2019-04-29T11:34:28.296Z,0.80
2019-04-29T11:36:54.626Z,0.90
2019-04-29T11:39:21.034Z,0.90
2019-04-29T11:41:50.062Z,1.00
2019-04-29T11:44:13.709Z,0.90
2019-04-29T11:46:40.041Z,0.80
2019-04-29T11:49:06.391Z,0.80
2019-04-29T11:51:34.117Z,0.90
2019-04-29T11:53:59.069Z,0.90
2019-04-29T11:56:25.399Z,0.90
2019-04-29T11:58:51.752Z,0.90
2019-04-29T12:01:18.185Z,0.90
2019-04-29T12:03:44.478Z,0.90
2019-04-29T12:06:10.854Z,1.03
2019-04-29T12:08:37.145Z,1.00
2019-04-29T12:11:07.169Z,0.90
2019-04-29T12:13:29.897Z,0.90
2019-04-29T12:18:22.578Z,1.00
2019-04-29T12:20:48.912Z,1.00
2019-04-29T12:23:15.609Z,1.00
2019-04-29T12:25:41.574Z,0.97
2019-04-29T12:28:18.954Z,0.90
2019-04-29T12:30:36.284Z,1.00
2019-04-29T12:33:01.325Z,0.90
2019-04-29T12:35:30.019Z,0.93
2019-04-29T12:37:53.326Z,0.90
2019-04-29T12:40:19.673Z,0.90
2019-04-29T12:42:46.005Z,0.80
2019-04-29T12:45:19.318Z,0.80
2019-04-29T12:47:38.704Z,1.00
2019-04-29T12:50:05.180Z,0.80
2019-04-29T12:52:31.529Z,0.93
2019-04-29T12:55:01.734Z,0.90
2019-04-29T12:57:24.786Z,0.90
2019-04-29T12:59:50.606Z,1.00
2019-04-29T13:02:19.876Z,0.90
2019-04-29T13:04:45.090Z,0.90
2019-04-29T13:07:09.683Z,0.90
2019-04-29T13:09:35.977Z,0.83
2019-04-29T13:12:17.794Z,0.90
2019-04-29T13:14:32.799Z,0.80
2019-04-29T13:16:55.844Z,0.90
2019-04-29T13:19:25.074Z,0.80
2019-04-29T13:21:47.705Z,0.90
2019-04-29T13:24:23.578Z,0.90
2019-04-29T13:26:42.895Z,0.97
2019-04-29T13:29:06.785Z,0.80
2019-04-29T13:31:38.447Z,0.90
2019-04-29T13:36:26.364Z,0.80
2019-04-29T13:38:52.140Z,0.70
2019-04-29T13:41:23.910Z,0.80
2019-04-29T13:46:11.229Z,0.80
2019-04-29T13:48:54.913Z,0.80
2019-04-29T13:51:03.882Z,1.07
2019-04-29T13:53:30.219Z,0.90
2019-04-29T13:56:11.268Z,0.90
2019-04-29T13:58:27.050Z,0.87
2019-04-29T14:00:51.429Z,0.80
2019-04-29T14:03:17.757Z,1.00
2019-04-29T14:05:44.092Z,0.80
2019-04-29T14:08:10.506Z,0.80
2019-04-29T14:10:36.873Z,1.00
2019-04-29T14:13:11.748Z,0.90
2019-04-29T14:15:29.768Z,0.80
2019-04-29T14:17:55.879Z,0.80
2019-04-29T14:20:22.220Z,0.80
2019-04-29T14:22:48.570Z,0.80
2019-04-29T14:25:14.927Z,0.83
2019-04-29T14:27:41.258Z,0.80
2019-04-29T14:30:09.054Z,0.80
2019-04-29T14:32:38.056Z,0.80
2019-04-29T14:35:00.278Z,0.87
2019-04-29T14:37:26.682Z,0.90
2019-04-29T14:39:53.042Z,0.80
2019-04-29T14:42:19.398Z,0.90
2019-04-29T14:44:45.728Z,0.90
2019-04-29T14:47:12.127Z,0.90
2019-04-29T14:49:39.771Z,0.80
2019-04-29T14:52:08.147Z,0.80
2019-04-29T14:54:31.207Z,0.90
2019-04-29T14:56:57.551Z,0.80
2019-04-29T14:59:24.063Z,0.80
2019-04-29T15:01:50.401Z,0.77
2019-04-29T15:04:18.961Z,0.90
2019-04-29T15:09:16.977Z,0.80
2019-04-29T15:11:35.874Z,0.90
2019-04-29T15:14:02.490Z,0.90
2019-04-29T15:16:28.492Z,0.90
2019-04-29T15:18:54.847Z,0.80
2019-04-29T15:21:32.335Z,0.80
2019-04-29T15:23:47.517Z,0.90
2019-04-29T15:26:13.844Z,0.90
2019-04-29T15:31:17.211Z,0.73
2019-04-29T15:33:41.874Z,0.70
2019-04-29T15:38:34.557Z,0.80
2019-04-29T15:41:00.906Z,0.80
2019-04-29T15:43:46.138Z,0.80
2019-04-29T15:45:53.602Z,0.70
2019-04-29T15:48:21.911Z,0.80
2019-04-29T15:50:48.238Z,0.90
2019-04-29T15:53:14.571Z,0.80
2019-04-29T15:55:41.363Z,0.80
2019-04-29T15:58:07.368Z,0.80
2019-04-29T16:00:37.628Z,0.77
2019-04-29T16:03:00.060Z,0.83
2019-04-29T16:05:26.381Z,0.80
2019-04-29T16:07:55.693Z,0.70
2019-04-29T16:10:20.746Z,0.80
2019-04-29T16:12:50.863Z,0.80
2019-04-29T16:15:11.909Z,0.80
2019-04-29T16:17:39.417Z,0.80
2019-04-29T16:20:04.607Z,0.80
2019-04-29T16:22:30.996Z,0.77
2019-04-29T16:24:59.437Z,0.80
2019-04-29T16:27:23.704Z,0.80
2019-04-29T16:29:51.570Z,0.70
2019-04-29T16:32:16.437Z,0.80
2019-04-29T16:34:45.139Z,0.80
2019-04-29T16:37:09.155Z,0.80
2019-04-29T16:39:35.501Z,0.80
2019-04-29T16:42:01.911Z,0.80
2019-04-29T16:44:35.669Z,0.80
2019-04-29T16:46:54.535Z,0.80
2019-04-29T16:49:20.944Z,0.80
2019-04-29T16:51:47.948Z,0.80
2019-04-29T16:54:20.451Z,0.80
2019-04-29T16:56:39.966Z,0.90
2019-04-29T16:59:09.302Z,0.80
2019-04-29T17:01:32.779Z,0.70
2019-04-29T17:04:05.101Z,0.80
2019-04-29T17:06:25.427Z,0.70
2019-04-29T17:09:03.032Z,0.70
2019-04-29T17:11:19.595Z,0.80
2019-04-29T17:13:44.462Z,0.70
2019-04-29T17:16:10.904Z,0.80
2019-04-29T17:18:37.171Z,0.70
2019-04-29T17:21:07.155Z,0.70
2019-04-29T17:23:29.887Z,0.73
2019-04-29T17:28:25.718Z,0.80
2019-04-29T17:30:49.606Z,0.70
2019-04-29T17:33:25.981Z,0.80
2019-04-29T17:35:47.009Z,0.80
2019-04-29T17:38:07.895Z,0.70
2019-04-29T17:40:34.259Z,0.80
2019-04-29T17:43:00.764Z,0.70
2019-04-29T17:45:30.836Z,0.80
2019-04-29T17:47:53.420Z,0.80
2019-04-29T17:50:29.525Z,0.70
2019-04-29T17:52:46.152Z,0.80
2019-04-29T17:55:12.485Z,0.70
2019-04-29T18:00:08.566Z,0.83
2019-04-29T18:02:31.570Z,0.87
2019-04-29T18:04:57.889Z,0.70
2019-04-29T18:07:25.194Z,0.90
2019-04-29T18:09:50.598Z,0.90
2019-04-29T18:12:16.929Z,1.00
2019-04-29T18:14:44.663Z,0.87
2019-04-29T18:17:09.651Z,0.90
2019-04-29T18:19:36.229Z,0.70
2019-04-29T18:22:02.392Z,0.90
2019-04-29T18:24:29.467Z,0.80
2019-04-29T18:29:21.393Z,1.00
2019-04-29T18:31:47.762Z,0.90
2019-04-29T18:34:15.275Z,0.80
2019-04-29T18:36:40.456Z,0.80
2019-04-29T18:39:06.856Z,0.80
2019-04-29T18:41:33.188Z,0.83
2019-04-29T18:44:02.916Z,0.80
2019-04-29T18:46:26.000Z,0.90
2019-04-29T18:48:55.943Z,0.90
2019-04-29T18:51:20.871Z,0.80
2019-04-29T18:53:44.976Z,0.83
2019-04-29T18:56:11.314Z,1.23
2019-04-29T18:58:37.642Z,1.00
2019-04-29T19:01:05.372Z,0.90
2019-04-29T19:03:33.228Z,0.90
2019-04-29T19:05:57.850Z,0.90
2019-04-29T19:08:26.610Z,1.00
2019-04-29T19:10:52.147Z,1.00
2019-04-29T19:13:17.213Z,0.80
2019-04-29T19:15:46.928Z,0.90
2019-04-29T19:18:12.371Z,0.90
2019-04-29T19:20:36.121Z,0.90
2019-04-29T19:23:07.887Z,0.90
2019-04-29T19:25:28.783Z,1.00
2019-04-29T19:30:26.283Z,0.83
2019-04-29T19:32:47.837Z,1.07
2019-04-29T19:35:16.622Z,1.00
2019-04-29T19:37:40.522Z,1.00
2019-04-29T19:40:08.342Z,1.00
2019-04-29T19:42:35.896Z,1.10
2019-04-29T19:44:59.744Z,1.00
2019-04-29T19:47:28.121Z,1.10
2019-04-29T19:49:52.466Z,0.90
2019-04-29T19:52:28.111Z,0.90
2019-04-29T19:54:45.294Z,1.10
2019-04-29T19:57:11.630Z,1.00
2019-04-29T19:59:38.403Z,1.00
2019-04-29T20:02:09.565Z,1.00
2019-04-29T20:04:30.975Z,1.00
2019-04-29T20:07:03.739Z,0.93
2019-04-29T20:09:24.509Z,0.90
2019-04-29T20:11:50.246Z,1.00
2019-04-29T20:14:21.391Z,0.97
2019-04-29T20:16:44.792Z,1.03
2019-04-29T20:19:16.158Z,1.00
2019-04-29T20:21:36.280Z,1.20
2019-04-29T20:24:01.789Z,0.90
2019-04-29T20:26:29.697Z,1.03
2019-04-29T20:28:55.607Z,1.03
2019-04-29T20:31:22.227Z,1.00
2019-04-29T20:33:48.746Z,1.03
2019-04-29T20:36:13.574Z,1.00
2019-04-29T20:38:39.912Z,1.10
2019-04-29T20:41:08.119Z,1.20
2019-04-29T20:43:32.610Z,1.10
2019-04-29T20:46:02.327Z,0.90
2019-04-29T20:48:25.346Z,1.20
2019-04-29T20:50:53.154Z,1.00
2019-04-29T20:53:18.205Z,1.30
2019-04-29T20:58:10.871Z,1.30
2019-04-29T21:00:37.282Z,1.00
2019-04-29T21:03:04.189Z,1.00
2019-04-29T21:05:29.923Z,1.10
2019-04-29T21:08:02.844Z,1.00
2019-04-29T21:10:22.527Z,1.10
2019-04-29T21:12:48.923Z,1.10
2019-04-29T21:15:16.366Z,1.10
2019-04-29T21:17:41.702Z,1.10
2019-04-29T21:20:07.969Z,1.20
2019-04-29T21:22:35.700Z,1.20
2019-04-29T21:25:00.814Z,1.30
2019-04-29T21:27:27.082Z,1.20
2019-04-29T21:29:54.067Z,1.33
2019-04-29T21:32:19.866Z,1.20
2019-04-29T21:37:12.531Z,1.10
2019-04-29T21:39:41.834Z,1.20
2019-04-29T21:42:08.146Z,1.50
2019-04-29T21:44:34.513Z,1.20
2019-04-29T21:47:04.697Z,0.90
2019-04-29T21:49:27.309Z,1.20
2019-04-29T21:51:55.399Z,1.20
2019-04-29T21:54:19.985Z,1.20
2019-04-29T21:56:47.773Z,1.37
2019-04-29T21:59:12.734Z,1.20
2019-04-29T22:01:39.123Z,1.33
2019-04-29T22:04:05.426Z,1.60
2019-04-29T22:06:31.796Z,1.07
2019-04-29T22:09:01.352Z,1.40
2019-04-29T22:11:25.713Z,1.20
2019-04-29T22:13:50.815Z,1.30
2019-04-29T22:16:17.329Z,1.20
2019-04-29T22:18:44.765Z,1.17
2019-04-29T22:21:10.266Z,1.40
2019-04-29T22:23:36.251Z,1.30
2019-04-29T22:26:02.643Z,1.40
2019-04-29T22:30:56.226Z,1.40
2019-04-29T22:33:21.683Z,1.20
2019-04-29T22:35:48.098Z,1.30
2019-04-29T22:38:16.732Z,1.47
2019-04-29T22:40:42.804Z,1.50
2019-04-29T22:43:10.218Z,1.13
2019-04-29T22:45:34.234Z,1.30
2019-04-29T22:48:14.269Z,1.40
2019-04-29T22:50:26.308Z,1.30
2019-04-29T22:52:55.389Z,1.40
2019-04-29T22:55:19.055Z,1.30
2019-04-29T22:57:46.954Z,1.40
2019-04-29T23:00:11.944Z,1.10
2019-04-29T23:02:38.289Z,1.50
2019-04-29T23:05:04.659Z,1.60
2019-04-29T23:07:30.949Z,1.50
2019-04-29T23:09:57.613Z,1.23
2019-04-29T23:12:25.028Z,1.20
2019-04-29T23:14:49.995Z,1.20
2019-04-29T23:17:16.354Z,1.20
2019-04-29T23:19:46.597Z,1.30
2019-04-29T23:22:10.501Z,1.50
2019-04-29T23:24:35.418Z,1.40
2019-04-29T23:27:11.564Z,1.70
2019-04-29T23:29:37.122Z,1.60
2019-04-29T23:32:06.762Z,1.43
2019-04-29T23:34:29.180Z,1.33
2019-04-29T23:36:53.535Z,1.47
2019-04-29T23:39:19.945Z,1.30
2019-04-29T23:41:46.242Z,1.80
2019-04-29T23:44:12.574Z,1.43
2019-04-29T23:46:39.081Z,1.57
2019-04-29T23:49:06.735Z,1.40
2019-04-29T23:51:34.411Z,1.43
2019-04-29T23:54:03.317Z,1.50
2019-04-29T23:56:24.578Z,1.40
2019-04-29T23:58:50.952Z,1.50
